Wind From: 11-12-2017 04:25 Until: 16:00 warning for: Wind Level: Orange info button

Power and phone distribution networks may be disrupted for relatively long periods., Roofs and chimneys can be damaged. , Tree branches may break. , Vehicles can be deported. , Traffic may be disrupted, particularly on secondary roads in forest areas. Limit your trips. , Limit your speed in highway driving, especially if you drive a vehicle or hitch sensitive to wind. , Do not go for walks in forests or along the coast., In town, be vigilant against possible falling objects., Do not work on roofs and do not touch any electrical line fallen on the ground., Store or secure sensitive objects to wind or likely to be damaged., Always install power generators outside buildings. 


Meteo18 Weather Cam more information Meteo18 Weather Cam


Thunder radar more information blitzortung!


Rain radar more information rain snow radar


Visit our other weather sites:

Template documentation
and downloads

And another site



Weather Underground History page Text

Daily Summary for July 4, 2017 Units:  Both    English   Metric
« Previous Day
Next Day »
Daily Weekly Monthly Yearly Custom
  High: Low: Average:
Temperature: 86.2 °F /  30.1 °C 53.2 °F /  11.8 °C 70.7 °F /  21.5 °C
Dew Point: 61 °F /  16.1 °C 51.8 °F /  11.0 °C 56.8 °F /  13.8 °C
Humidity: 96 % 38 % 66 %
Wind Speed: 7 mph /  11.3 km/h - 1.2 mph /  1.9 km/h
Wind Gust: 12 mph /  19.3 km/h - -
Wind:- - ESE
Pressure: 30.2 in /  1023.9 hPa 30.1 in /  1018.2 hPa -
Precipitation: 0 in /  0.0 mm    
Historical Graphs
 
 
Tabular Data for July 4, 2017
Time Temperature Dew Point Pressure Wind Wind Speed Wind Gust Humidity Rainfall Rate (Hourly)
00:02 58.6 °F /  14.8 °C 55.8 °F /  13.2 °C 30.2 in /  1023.9 hPa Calm     90 % 0 in /  0.0 mm
00:12 59 °F /  15.0 °C 56.1 °F /  13.4 °C 30.2 in /  1023.9 hPa Calm     90 % 0 in /  0.0 mm
00:17 59.2 °F /  15.1 °C 56.3 °F /  13.5 °C 30.2 in /  1023.6 hPa Calm     90 % 0 in /  0.0 mm
00:22 59 °F /  15.0 °C 56.1 °F /  13.4 °C 30.2 in /  1023.6 hPa Calm     90 % 0 in /  0.0 mm
00:32 58.5 °F /  14.7 °C 55.6 °F /  13.1 °C 30.2 in /  1023.6 hPa Calm     90 % 0 in /  0.0 mm
00:42 58.3 °F /  14.6 °C 55.6 °F /  13.1 °C 30.2 in /  1023.6 hPa Calm     91 % 0 in /  0.0 mm
00:47 58.3 °F /  14.6 °C 55.6 °F /  13.1 °C 30.2 in /  1023.6 hPa Calm     91 % 0 in /  0.0 mm
00:52 58.3 °F /  14.6 °C 55.6 °F /  13.1 °C 30.2 in /  1023.6 hPa Calm     91 % 0 in /  0.0 mm
00:57 58.3 °F /  14.6 °C 55.6 °F /  13.1 °C 30.2 in /  1023.6 hPa Calm     91 % 0 in /  0.0 mm
01:02 57.9 °F /  14.4 °C 55.2 °F /  12.9 °C 30.2 in /  1023.6 hPa Calm     91 % 0 in /  0.0 mm
01:07 57.9 °F /  14.4 °C 55.6 °F /  13.1 °C 30.2 in /  1023.6 hPa Calm     92 % 0 in /  0.0 mm
01:12 57.7 °F /  14.3 °C 55.4 °F /  13.0 °C 30.2 in /  1023.6 hPa Calm     92 % 0 in /  0.0 mm
01:17 57.6 °F /  14.2 °C 55.2 °F /  12.9 °C 30.2 in /  1023.6 hPa Calm     92 % 0 in /  0.0 mm
01:22 57.6 °F /  14.2 °C 55.2 °F /  12.9 °C 30.2 in /  1023.6 hPa Calm     92 % 0 in /  0.0 mm
01:27 57.4 °F /  14.1 °C 55 °F /  12.8 °C 30.2 in /  1023.6 hPa Calm     92 % 0 in /  0.0 mm
01:32 57 °F /  13.9 °C 54.7 °F /  12.6 °C 30.2 in /  1023.6 hPa Calm     92 % 0 in /  0.0 mm
01:37 56.8 °F /  13.8 °C 54.9 °F /  12.7 °C 30.2 in /  1023.6 hPa Calm     93 % 0 in /  0.0 mm
01:42 56.7 °F /  13.7 °C 54.7 °F /  12.6 °C 30.2 in /  1023.6 hPa Calm     93 % 0 in /  0.0 mm
01:47 56.5 °F /  13.6 °C 54.5 °F /  12.5 °C 30.2 in /  1023.6 hPa Calm     93 % 0 in /  0.0 mm
01:52 56.5 °F /  13.6 °C 54.5 °F /  12.5 °C 30.2 in /  1023.6 hPa Calm     93 % 0 in /  0.0 mm
01:57 56.5 °F /  13.6 °C 54.9 °F /  12.7 °C 30.2 in /  1023.6 hPa Calm     94 % 0 in /  0.0 mm
02:02 56.5 °F /  13.6 °C 54.9 °F /  12.7 °C 30.2 in /  1023.6 hPa Calm     94 % 0 in /  0.0 mm
02:07 56.5 °F /  13.6 °C 54.9 °F /  12.7 °C 30.2 in /  1023.6 hPa Calm     94 % 0 in /  0.0 mm
02:12 56.3 °F /  13.5 °C 54.3 °F /  12.4 °C 30.2 in /  1023.6 hPa Calm     93 % 0 in /  0.0 mm
02:17 56.1 °F /  13.4 °C 54.1 °F /  12.3 °C 30.2 in /  1023.6 hPa Calm     93 % 0 in /  0.0 mm
02:22 55.9 °F /  13.3 °C 54 °F /  12.2 °C 30.2 in /  1023.2 hPa Calm     93 % 0 in /  0.0 mm
02:27 55.9 °F /  13.3 °C 54.3 °F /  12.4 °C 30.2 in /  1023.6 hPa Calm     94 % 0 in /  0.0 mm
02:32 55.8 °F /  13.2 °C 54.1 °F /  12.3 °C 30.2 in /  1023.2 hPa Calm     94 % 0 in /  0.0 mm
02:37 55.8 °F /  13.2 °C 54.1 °F /  12.3 °C 30.2 in /  1023.2 hPa Calm     94 % 0 in /  0.0 mm
02:42 55.8 °F /  13.2 °C 54.1 °F /  12.3 °C 30.2 in /  1023.2 hPa Calm     94 % 0 in /  0.0 mm
02:47 55.8 °F /  13.2 °C 54.1 °F /  12.3 °C 30.2 in /  1023.2 hPa Calm     94 % 0 in /  0.0 mm
02:52 55.8 °F /  13.2 °C 54.1 °F /  12.3 °C 30.2 in /  1023.2 hPa Calm     94 % 0 in /  0.0 mm
02:57 55.8 °F /  13.2 °C 54.1 °F /  12.3 °C 30.2 in /  1023.2 hPa Calm     94 % 0 in /  0.0 mm
03:02 55.6 °F /  13.1 °C 54 °F /  12.2 °C 30.2 in /  1023.2 hPa Calm     94 % 0 in /  0.0 mm
03:12 55.2 °F /  12.9 °C 53.6 °F /  12.0 °C 30.2 in /  1023.2 hPa Calm     94 % 0 in /  0.0 mm
03:17 55 °F /  12.8 °C 53.4 °F /  11.9 °C 30.2 in /  1023.2 hPa Calm     94 % 0 in /  0.0 mm
03:22 55 °F /  12.8 °C 53.6 °F /  12.0 °C 30.2 in /  1023.2 hPa Calm     95 % 0 in /  0.0 mm
03:32 55 °F /  12.8 °C 53.6 °F /  12.0 °C 30.2 in /  1023.2 hPa Calm     95 % 0 in /  0.0 mm
03:37 55 °F /  12.8 °C 53.6 °F /  12.0 °C 30.2 in /  1023.2 hPa Calm     95 % 0 in /  0.0 mm
03:42 54.9 °F /  12.7 °C 53.4 °F /  11.9 °C 30.2 in /  1023.2 hPa Calm     95 % 0 in /  0.0 mm
03:47 54.9 °F /  12.7 °C 53.4 °F /  11.9 °C 30.2 in /  1023.2 hPa Calm     95 % 0 in /  0.0 mm
03:52 55 °F /  12.8 °C 53.6 °F /  12.0 °C 30.2 in /  1023.2 hPa Calm     95 % 0 in /  0.0 mm
03:57 55 °F /  12.8 °C 53.6 °F /  12.0 °C 30.2 in /  1023.2 hPa NNW 1 mph /  1.6 km/h   95 % 0 in /  0.0 mm
04:02 54.9 °F /  12.7 °C 53.4 °F /  11.9 °C 30.2 in /  1023.2 hPa North 1 mph /  1.6 km/h 2 mph /  3.2 km/h 95 % 0 in /  0.0 mm
04:12 54.5 °F /  12.5 °C 53.1 °F /  11.7 °C 30.2 in /  1023.2 hPa NNE 1 mph /  1.6 km/h 2 mph /  3.2 km/h 95 % 0 in /  0.0 mm
04:17 54.7 °F /  12.6 °C 53.2 °F /  11.8 °C 30.2 in /  1023.2 hPa North 1 mph /  1.6 km/h 2 mph /  3.2 km/h 95 % 0 in /  0.0 mm
04:22 54.5 °F /  12.5 °C 53.1 °F /  11.7 °C 30.2 in /  1023.2 hPa Calm   2 mph /  3.2 km/h 95 % 0 in /  0.0 mm
04:27 54.7 °F /  12.6 °C 53.2 °F /  11.8 °C 30.2 in /  1023.2 hPa Calm   2 mph /  3.2 km/h 95 % 0 in /  0.0 mm
04:32 54.7 °F /  12.6 °C 53.2 °F /  11.8 °C 30.2 in /  1023.2 hPa Calm   2 mph /  3.2 km/h 95 % 0 in /  0.0 mm
04:37 54.5 °F /  12.5 °C 53.1 °F /  11.7 °C 30.2 in /  1023.2 hPa Calm   1 mph /  1.6 km/h 95 % 0 in /  0.0 mm
04:42 54.5 °F /  12.5 °C 53.1 °F /  11.7 °C 30.2 in /  1023.2 hPa Calm   2 mph /  3.2 km/h 95 % 0 in /  0.0 mm
04:47 54.1 °F /  12.3 °C 52.7 °F /  11.5 °C 30.2 in /  1023.2 hPa Calm   2 mph /  3.2 km/h 95 % 0 in /  0.0 mm
04:52 54.1 °F /  12.3 °C 52.7 °F /  11.5 °C 30.2 in /  1023.2 hPa Calm   1 mph /  1.6 km/h 95 % 0 in /  0.0 mm
04:57 54 °F /  12.2 °C 52.5 °F /  11.4 °C 30.2 in /  1023.2 hPa Calm     95 % 0 in /  0.0 mm
05:02 54 °F /  12.2 °C 52.5 °F /  11.4 °C 30.2 in /  1023.2 hPa Calm     95 % 0 in /  0.0 mm
05:12 54 °F /  12.2 °C 52.5 °F /  11.4 °C 30.2 in /  1023.2 hPa Calm     95 % 0 in /  0.0 mm
05:17 54 °F /  12.2 °C 52.9 °F /  11.6 °C 30.2 in /  1022.9 hPa Calm     96 % 0 in /  0.0 mm
05:22 54.3 °F /  12.4 °C 53.2 °F /  11.8 °C 30.2 in /  1023.2 hPa North 1 mph /  1.6 km/h 2 mph /  3.2 km/h 96 % 0 in /  0.0 mm
05:32 54.1 °F /  12.3 °C 52.7 °F /  11.5 °C 30.2 in /  1023.2 hPa Calm   2 mph /  3.2 km/h 95 % 0 in /  0.0 mm
05:37 53.8 °F /  12.1 °C 52.3 °F /  11.3 °C 30.2 in /  1023.2 hPa Calm   1 mph /  1.6 km/h 95 % 0 in /  0.0 mm
05:42 54 °F /  12.2 °C 52.5 °F /  11.4 °C 30.2 in /  1023.2 hPa Calm   1 mph /  1.6 km/h 95 % 0 in /  0.0 mm
05:47 53.8 °F /  12.1 °C 52.3 °F /  11.3 °C 30.2 in /  1023.2 hPa Calm     95 % 0 in /  0.0 mm
05:52 53.6 °F /  12.0 °C 52.2 °F /  11.2 °C 30.2 in /  1023.2 hPa Calm     95 % 0 in /  0.0 mm
05:57 53.4 °F /  11.9 °C 52 °F /  11.1 °C 30.2 in /  1023.2 hPa Calm   1 mph /  1.6 km/h 95 % 0 in /  0.0 mm
06:02 53.4 °F /  11.9 °C 52 °F /  11.1 °C 30.2 in /  1023.2 hPa Calm   1 mph /  1.6 km/h 95 % 0 in /  0.0 mm
06:12 53.2 °F /  11.8 °C 51.8 °F /  11.0 °C 30.2 in /  1022.9 hPa Calm     95 % 0 in /  0.0 mm
06:17 53.4 °F /  11.9 °C 52 °F /  11.1 °C 30.2 in /  1022.9 hPa Calm     95 % 0 in /  0.0 mm
06:22 53.4 °F /  11.9 °C 52.3 °F /  11.3 °C 30.2 in /  1023.2 hPa Calm   2 mph /  3.2 km/h 96 % 0 in /  0.0 mm
06:27 53.4 °F /  11.9 °C 52 °F /  11.1 °C 30.2 in /  1023.2 hPa Calm   2 mph /  3.2 km/h 95 % 0 in /  0.0 mm
06:32 53.4 °F /  11.9 °C 52 °F /  11.1 °C 30.2 in /  1023.2 hPa Calm   2 mph /  3.2 km/h 95 % 0 in /  0.0 mm
06:42 54.1 °F /  12.3 °C 53.1 °F /  11.7 °C 30.2 in /  1022.9 hPa Calm     96 % 0 in /  0.0 mm
06:52 55.2 °F /  12.9 °C 53.8 °F /  12.1 °C 30.2 in /  1023.2 hPa Calm     95 % 0 in /  0.0 mm
07:02 56.3 °F /  13.5 °C 54.9 °F /  12.7 °C 30.2 in /  1023.2 hPa Calm     95 % 0 in /  0.0 mm
07:07 56.5 °F /  13.6 °C 54.5 °F /  12.5 °C 30.2 in /  1023.2 hPa Calm     93 % 0 in /  0.0 mm
07:12 56.8 °F /  13.8 °C 55.2 °F /  12.9 °C 30.2 in /  1023.2 hPa Calm     94 % 0 in /  0.0 mm
07:17 57.6 °F /  14.2 °C 55.8 °F /  13.2 °C 30.2 in /  1023.2 hPa Calm     94 % 0 in /  0.0 mm
07:22 58.8 °F /  14.9 °C 57.4 °F /  14.1 °C 30.2 in /  1023.2 hPa Calm     95 % 0 in /  0.0 mm
07:27 59.5 °F /  15.3 °C 57.6 °F /  14.2 °C 30.2 in /  1023.2 hPa Calm     93 % 0 in /  0.0 mm
07:32 59.9 °F /  15.5 °C 57.6 °F /  14.2 °C 30.2 in /  1022.9 hPa Calm     92 % 0 in /  0.0 mm
07:42 61.3 °F /  16.3 °C 58.6 °F /  14.8 °C 30.2 in /  1022.9 hPa Calm     91 % 0 in /  0.0 mm
07:47 61.3 °F /  16.3 °C 57.4 °F /  14.1 °C 30.2 in /  1023.2 hPa Calm     87 % 0 in /  0.0 mm
07:52 61.2 °F /  16.2 °C 57.6 °F /  14.2 °C 30.2 in /  1022.9 hPa Calm     88 % 0 in /  0.0 mm
07:57 61.9 °F /  16.6 °C 57.9 °F /  14.4 °C 30.2 in /  1023.2 hPa Calm     87 % 0 in /  0.0 mm
08:02 62.1 °F /  16.7 °C 58.1 °F /  14.5 °C 30.2 in /  1023.2 hPa Calm     87 % 0 in /  0.0 mm
08:07 63 °F /  17.2 °C 59 °F /  15.0 °C 30.2 in /  1022.9 hPa Calm     87 % 0 in /  0.0 mm
08:12 63.7 °F /  17.6 °C 59.4 °F /  15.2 °C 30.2 in /  1022.9 hPa Calm     86 % 0 in /  0.0 mm
08:17 64.8 °F /  18.2 °C 59.9 °F /  15.5 °C 30.2 in /  1022.9 hPa Calm     84 % 0 in /  0.0 mm
08:22 65.8 °F /  18.8 °C 60.3 °F /  15.7 °C 30.2 in /  1022.9 hPa Calm     82 % 0 in /  0.0 mm
08:32 65.7 °F /  18.7 °C 59.7 °F /  15.4 °C 30.2 in /  1022.9 hPa Calm     81 % 0 in /  0.0 mm
08:37 64.9 °F /  18.3 °C 58.6 °F /  14.8 °C 30.2 in /  1022.9 hPa Calm   1 mph /  1.6 km/h 80 % 0 in /  0.0 mm
08:42 64.9 °F /  18.3 °C 59.7 °F /  15.4 °C 30.2 in /  1022.9 hPa West 1 mph /  1.6 km/h 1 mph /  1.6 km/h 83 % 0 in /  0.0 mm
08:47 65.8 °F /  18.8 °C 59.9 °F /  15.5 °C 30.2 in /  1022.9 hPa Calm   1 mph /  1.6 km/h 81 % 0 in /  0.0 mm
08:52 66.7 °F /  19.3 °C 60.4 °F /  15.8 °C 30.2 in /  1022.9 hPa Calm   1 mph /  1.6 km/h 80 % 0 in /  0.0 mm
08:57 67.5 °F /  19.7 °C 59.5 °F /  15.3 °C 30.2 in /  1022.9 hPa Calm   2 mph /  3.2 km/h 76 % 0 in /  0.0 mm
09:02 67.6 °F /  19.8 °C 59.7 °F /  15.4 °C 30.2 in /  1022.9 hPa Calm   2 mph /  3.2 km/h 76 % 0 in /  0.0 mm
09:12 69.1 °F /  20.6 °C 60.1 °F /  15.6 °C 30.2 in /  1022.9 hPa SSE 1 mph /  1.6 km/h 2 mph /  3.2 km/h 73 % 0 in /  0.0 mm
09:17 68.4 °F /  20.2 °C 59 °F /  15.0 °C 30.2 in /  1022.9 hPa South 1 mph /  1.6 km/h 3 mph /  4.8 km/h 72 % 0 in /  0.0 mm
09:22 68.5 °F /  20.3 °C 59.5 °F /  15.3 °C 30.2 in /  1022.9 hPa Calm   3 mph /  4.8 km/h 73 % 0 in /  0.0 mm
09:32 69.4 °F /  20.8 °C 59.5 °F /  15.3 °C 30.2 in /  1022.6 hPa Calm   3 mph /  4.8 km/h 71 % 0 in /  0.0 mm
09:37 69.6 °F /  20.9 °C 59.4 °F /  15.2 °C 30.2 in /  1022.9 hPa Calm   3 mph /  4.8 km/h 70 % 0 in /  0.0 mm
09:42 70.2 °F /  21.2 °C 59.2 °F /  15.1 °C 30.2 in /  1022.9 hPa ESE 1 mph /  1.6 km/h 3 mph /  4.8 km/h 68 % 0 in /  0.0 mm
09:47 70.3 °F /  21.3 °C 59.7 °F /  15.4 °C 30.2 in /  1022.6 hPa ESE 1 mph /  1.6 km/h 4 mph /  6.4 km/h 69 % 0 in /  0.0 mm
09:52 70.3 °F /  21.3 °C 59.7 °F /  15.4 °C 30.2 in /  1022.9 hPa ENE 3 mph /  4.8 km/h 4 mph /  6.4 km/h 69 % 0 in /  0.0 mm
09:57 70.5 °F /  21.4 °C 59.9 °F /  15.5 °C 30.2 in /  1022.6 hPa SSW 1 mph /  1.6 km/h 4 mph /  6.4 km/h 69 % 0 in /  0.0 mm
10:02 71.4 °F /  21.9 °C 60.3 °F /  15.7 °C 30.2 in /  1022.6 hPa SSW 3 mph /  4.8 km/h 4 mph /  6.4 km/h 68 % 0 in /  0.0 mm
10:07 71.4 °F /  21.9 °C 60.8 °F /  16.0 °C 30.2 in /  1022.6 hPa East 3 mph /  4.8 km/h 4 mph /  6.4 km/h 69 % 0 in /  0.0 mm
10:12 71.4 °F /  21.9 °C 59.9 °F /  15.5 °C 30.2 in /  1022.6 hPa WSW 1 mph /  1.6 km/h 5 mph /  8.0 km/h 67 % 0 in /  0.0 mm
10:22 72.1 °F /  22.3 °C 60.6 °F /  15.9 °C 30.2 in /  1022.9 hPa ESE 1 mph /  1.6 km/h 5 mph /  8.0 km/h 67 % 0 in /  0.0 mm
10:27 72.7 °F /  22.6 °C 60.6 °F /  15.9 °C 30.2 in /  1022.6 hPa Calm   5 mph /  8.0 km/h 66 % 0 in /  0.0 mm
10:32 73.4 °F /  23.0 °C 61 °F /  16.1 °C 30.2 in /  1022.6 hPa NNE 2 mph /  3.2 km/h 5 mph /  8.0 km/h 65 % 0 in /  0.0 mm
10:37 73.2 °F /  22.9 °C 60.3 °F /  15.7 °C 30.2 in /  1022.6 hPa East 3 mph /  4.8 km/h 4 mph /  6.4 km/h 64 % 0 in /  0.0 mm
10:42 73.2 °F /  22.9 °C 60.3 °F /  15.7 °C 30.2 in /  1022.6 hPa ESE 4 mph /  6.4 km/h 5 mph /  8.0 km/h 64 % 0 in /  0.0 mm
10:47 73.2 °F /  22.9 °C 60.3 °F /  15.7 °C 30.2 in /  1022.6 hPa ENE 1 mph /  1.6 km/h 6 mph /  9.7 km/h 64 % 0 in /  0.0 mm
10:52 73.4 °F /  23.0 °C 60.4 °F /  15.8 °C 30.2 in /  1022.6 hPa ENE 2 mph /  3.2 km/h 6 mph /  9.7 km/h 64 % 0 in /  0.0 mm
10:57 73.4 °F /  23.0 °C 60.4 °F /  15.8 °C 30.2 in /  1022.6 hPa Calm   5 mph /  8.0 km/h 64 % 0 in /  0.0 mm
11:02 73.8 °F /  23.2 °C 59.5 °F /  15.3 °C 30.2 in /  1022.2 hPa ENE 5 mph /  8.0 km/h 5 mph /  8.0 km/h 61 % 0 in /  0.0 mm
11:07 73.8 °F /  23.2 °C 59.5 °F /  15.3 °C 30.2 in /  1022.2 hPa ESE 1 mph /  1.6 km/h 8 mph /  12.9 km/h 61 % 0 in /  0.0 mm
11:12 73.9 °F /  23.3 °C 58.3 °F /  14.6 °C 30.2 in /  1022.2 hPa ENE 4 mph /  6.4 km/h 8 mph /  12.9 km/h 58 % 0 in /  0.0 mm
11:17 74.1 °F /  23.4 °C 58.5 °F /  14.7 °C 30.2 in /  1022.2 hPa Calm   8 mph /  12.9 km/h 58 % 0 in /  0.0 mm
11:22 74.7 °F /  23.7 °C 58.8 °F /  14.9 °C 30.2 in /  1022.2 hPa NE 2 mph /  3.2 km/h 8 mph /  12.9 km/h 58 % 0 in /  0.0 mm
11:27 74.8 °F /  23.8 °C 58.1 °F /  14.5 °C 30.2 in /  1022.2 hPa ENE 5 mph /  8.0 km/h 8 mph /  12.9 km/h 56 % 0 in /  0.0 mm
11:32 74.7 °F /  23.7 °C 56.5 °F /  13.6 °C 30.2 in /  1022.2 hPa Calm   7 mph /  11.3 km/h 53 % 0 in /  0.0 mm
11:37 74.8 °F /  23.8 °C 57 °F /  13.9 °C 30.2 in /  1022.2 hPa WNW 1 mph /  1.6 km/h 7 mph /  11.3 km/h 54 % 0 in /  0.0 mm
11:42 75.7 °F /  24.3 °C 59 °F /  15.0 °C 30.2 in /  1022.2 hPa ESE 3 mph /  4.8 km/h 5 mph /  8.0 km/h 56 % 0 in /  0.0 mm
11:47 75.6 °F /  24.2 °C 57.2 °F /  14.0 °C 30.2 in /  1021.9 hPa SW 4 mph /  6.4 km/h 5 mph /  8.0 km/h 53 % 0 in /  0.0 mm
11:52 75.6 °F /  24.2 °C 58.3 °F /  14.6 °C 30.2 in /  1021.9 hPa West 3 mph /  4.8 km/h 5 mph /  8.0 km/h 55 % 0 in /  0.0 mm
11:57 75.7 °F /  24.3 °C 57.9 °F /  14.4 °C 30.2 in /  1021.9 hPa ESE 1 mph /  1.6 km/h 5 mph /  8.0 km/h 54 % 0 in /  0.0 mm
12:02 76.3 °F /  24.6 °C 59 °F /  15.0 °C 30.2 in /  1021.9 hPa SSW 3 mph /  4.8 km/h 5 mph /  8.0 km/h 55 % 0 in /  0.0 mm
12:07 76.8 °F /  24.9 °C 57.9 °F /  14.4 °C 30.2 in /  1021.9 hPa SW 2 mph /  3.2 km/h 6 mph /  9.7 km/h 52 % 0 in /  0.0 mm
12:12 76.5 °F /  24.7 °C 57.6 °F /  14.2 °C 30.2 in /  1021.9 hPa Calm   6 mph /  9.7 km/h 52 % 0 in /  0.0 mm
12:17 77 °F /  25.0 °C 58.6 °F /  14.8 °C 30.2 in /  1021.9 hPa NNE 2 mph /  3.2 km/h 5 mph /  8.0 km/h 53 % 0 in /  0.0 mm
12:22 76.5 °F /  24.7 °C 58.6 °F /  14.8 °C 30.2 in /  1021.9 hPa West 1 mph /  1.6 km/h 6 mph /  9.7 km/h 54 % 0 in /  0.0 mm
12:27 76.6 °F /  24.8 °C 58.8 °F /  14.9 °C 30.2 in /  1021.6 hPa East 5 mph /  8.0 km/h 6 mph /  9.7 km/h 54 % 0 in /  0.0 mm
12:32 76.3 °F /  24.6 °C 57.9 °F /  14.4 °C 30.2 in /  1021.6 hPa NE 3 mph /  4.8 km/h 6 mph /  9.7 km/h 53 % 0 in /  0.0 mm
12:42 77.7 °F /  25.4 °C 59.2 °F /  15.1 °C 30.2 in /  1021.6 hPa SSW 3 mph /  4.8 km/h 7 mph /  11.3 km/h 53 % 0 in /  0.0 mm
12:47 78.1 °F /  25.6 °C 57.9 °F /  14.4 °C 30.2 in /  1021.6 hPa Calm   5 mph /  8.0 km/h 50 % 0 in /  0.0 mm
12:52 78.6 °F /  25.9 °C 57.9 °F /  14.4 °C 30.2 in /  1021.6 hPa ESE 2 mph /  3.2 km/h 5 mph /  8.0 km/h 49 % 0 in /  0.0 mm
12:57 79.2 °F /  26.2 °C 59 °F /  15.0 °C 30.2 in /  1021.6 hPa SE 2 mph /  3.2 km/h 4 mph /  6.4 km/h 50 % 0 in /  0.0 mm
13:02 78.4 °F /  25.8 °C 57.7 °F /  14.3 °C 30.2 in /  1021.6 hPa SE 4 mph /  6.4 km/h 5 mph /  8.0 km/h 49 % 0 in /  0.0 mm
13:07 78.1 °F /  25.6 °C 57.4 °F /  14.1 °C 30.2 in /  1021.6 hPa WSW 3 mph /  4.8 km/h 9 mph /  14.5 km/h 49 % 0 in /  0.0 mm
13:12 77.7 °F /  25.4 °C 57 °F /  13.9 °C 30.2 in /  1021.6 hPa ENE 1 mph /  1.6 km/h 9 mph /  14.5 km/h 49 % 0 in /  0.0 mm
13:17 77.5 °F /  25.3 °C 56.8 °F /  13.8 °C 30.2 in /  1021.6 hPa ESE 7 mph /  11.3 km/h 9 mph /  14.5 km/h 49 % 0 in /  0.0 mm
13:22 78.6 °F /  25.9 °C 57.2 °F /  14.0 °C 30.2 in /  1021.6 hPa NE 2 mph /  3.2 km/h 8 mph /  12.9 km/h 48 % 0 in /  0.0 mm
13:27 78.6 °F /  25.9 °C 57.2 °F /  14.0 °C 30.2 in /  1021.2 hPa NE 3 mph /  4.8 km/h 8 mph /  12.9 km/h 48 % 0 in /  0.0 mm
13:32 79 °F /  26.1 °C 57 °F /  13.9 °C 30.2 in /  1021.2 hPa ESE 6 mph /  9.7 km/h 8 mph /  12.9 km/h 47 % 0 in /  0.0 mm
13:37 78.8 °F /  26.0 °C 56.3 °F /  13.5 °C 30.2 in /  1021.2 hPa ENE 5 mph /  8.0 km/h 7 mph /  11.3 km/h 46 % 0 in /  0.0 mm
13:42 78.6 °F /  25.9 °C 56.1 °F /  13.4 °C 30.2 in /  1021.2 hPa SSW 2 mph /  3.2 km/h 7 mph /  11.3 km/h 46 % 0 in /  0.0 mm
13:47 79.3 °F /  26.3 °C 54.9 °F /  12.7 °C 30.2 in /  1021.2 hPa NE 3 mph /  4.8 km/h 7 mph /  11.3 km/h 43 % 0 in /  0.0 mm
13:52 79.7 °F /  26.5 °C 54.5 °F /  12.5 °C 30.2 in /  1021.2 hPa Calm   7 mph /  11.3 km/h 42 % 0 in /  0.0 mm
13:57 79.9 °F /  26.6 °C 56.7 °F /  13.7 °C 30.2 in /  1021.2 hPa SSW 2 mph /  3.2 km/h 7 mph /  11.3 km/h 45 % 0 in /  0.0 mm
14:02 79.9 °F /  26.6 °C 56.7 °F /  13.7 °C 30.2 in /  1020.9 hPa SSW 5 mph /  8.0 km/h 7 mph /  11.3 km/h 45 % 0 in /  0.0 mm
14:07 80.2 °F /  26.8 °C 57.6 °F /  14.2 °C 30.2 in /  1020.9 hPa SE 1 mph /  1.6 km/h 7 mph /  11.3 km/h 46 % 0 in /  0.0 mm
14:12 80.4 °F /  26.9 °C 56.5 °F /  13.6 °C 30.2 in /  1020.9 hPa South 3 mph /  4.8 km/h 6 mph /  9.7 km/h 44 % 0 in /  0.0 mm
14:17 80.1 °F /  26.7 °C 56.1 °F /  13.4 °C 30.2 in /  1020.9 hPa Calm   10 mph /  16.1 km/h 44 % 0 in /  0.0 mm
14:22 80.4 °F /  26.9 °C 57.2 °F /  14.0 °C 30.2 in /  1020.9 hPa East 3 mph /  4.8 km/h 10 mph /  16.1 km/h 45 % 0 in /  0.0 mm
14:27 80.2 °F /  26.8 °C 56.3 °F /  13.5 °C 30.2 in /  1020.9 hPa ENE 5 mph /  8.0 km/h 10 mph /  16.1 km/h 44 % 0 in /  0.0 mm
14:32 80.4 °F /  26.9 °C 56.5 °F /  13.6 °C 30.2 in /  1020.9 hPa Calm   9 mph /  14.5 km/h 44 % 0 in /  0.0 mm
14:37 80.8 °F /  27.1 °C 58.1 °F /  14.5 °C 30.2 in /  1020.9 hPa SSW 2 mph /  3.2 km/h 9 mph /  14.5 km/h 46 % 0 in /  0.0 mm
14:42 80.8 °F /  27.1 °C 55.6 °F /  13.1 °C 30.2 in /  1020.9 hPa ENE 5 mph /  8.0 km/h 8 mph /  12.9 km/h 42 % 0 in /  0.0 mm
14:47 80.1 °F /  26.7 °C 56.1 °F /  13.4 °C 30.1 in /  1020.5 hPa NW 2 mph /  3.2 km/h 7 mph /  11.3 km/h 44 % 0 in /  0.0 mm
14:52 80.4 °F /  26.9 °C 56.5 °F /  13.6 °C 30.1 in /  1020.5 hPa ENE 4 mph /  6.4 km/h 9 mph /  14.5 km/h 44 % 0 in /  0.0 mm
14:57 80.2 °F /  26.8 °C 56.3 °F /  13.5 °C 30.1 in /  1020.5 hPa North 4 mph /  6.4 km/h 9 mph /  14.5 km/h 44 % 0 in /  0.0 mm
15:02 80.8 °F /  27.1 °C 56.8 °F /  13.8 °C 30.1 in /  1020.5 hPa NE 1 mph /  1.6 km/h 9 mph /  14.5 km/h 44 % 0 in /  0.0 mm
15:12 81.9 °F /  27.7 °C 56.5 °F /  13.6 °C 30.1 in /  1020.5 hPa ENE 7 mph /  11.3 km/h 7 mph /  11.3 km/h 42 % 0 in /  0.0 mm
15:17 81.9 °F /  27.7 °C 57.2 °F /  14.0 °C 30.1 in /  1020.5 hPa NNE 4 mph /  6.4 km/h 11 mph /  17.7 km/h 43 % 0 in /  0.0 mm
15:22 81.1 °F /  27.3 °C 57.2 °F /  14.0 °C 30.1 in /  1020.5 hPa East 5 mph /  8.0 km/h 12 mph /  19.3 km/h 44 % 0 in /  0.0 mm
15:27 81.7 °F /  27.6 °C 57.6 °F /  14.2 °C 30.1 in /  1020.5 hPa East 6 mph /  9.7 km/h 12 mph /  19.3 km/h 44 % 0 in /  0.0 mm
15:32 81.7 °F /  27.6 °C 56.3 °F /  13.5 °C 30.1 in /  1020.2 hPa NE 4 mph /  6.4 km/h 10 mph /  16.1 km/h 42 % 0 in /  0.0 mm
15:37 81.7 °F /  27.6 °C 57 °F /  13.9 °C 30.1 in /  1020.2 hPa Calm   9 mph /  14.5 km/h 43 % 0 in /  0.0 mm
15:42 82 °F /  27.8 °C 56.7 °F /  13.7 °C 30.1 in /  1020.2 hPa East 5 mph /  8.0 km/h 7 mph /  11.3 km/h 42 % 0 in /  0.0 mm
15:47 82 °F /  27.8 °C 57.4 °F /  14.1 °C 30.1 in /  1020.2 hPa ENE 5 mph /  8.0 km/h 7 mph /  11.3 km/h 43 % 0 in /  0.0 mm
15:52 82.2 °F /  27.9 °C 56.8 °F /  13.8 °C 30.1 in /  1020.2 hPa SSW 1 mph /  1.6 km/h 8 mph /  12.9 km/h 42 % 0 in /  0.0 mm
15:57 82.8 °F /  28.2 °C 57.9 °F /  14.4 °C 30.1 in /  1020.2 hPa South 1 mph /  1.6 km/h 8 mph /  12.9 km/h 43 % 0 in /  0.0 mm
16:02 82.9 °F /  28.3 °C 56.8 °F /  13.8 °C 30.1 in /  1020.2 hPa WNW 3 mph /  4.8 km/h 9 mph /  14.5 km/h 41 % 0 in /  0.0 mm
16:07 83.1 °F /  28.4 °C 56.3 °F /  13.5 °C 30.1 in /  1019.9 hPa SW 1 mph /  1.6 km/h 9 mph /  14.5 km/h 40 % 0 in /  0.0 mm
16:12 83.8 °F /  28.8 °C 57 °F /  13.9 °C 30.1 in /  1019.9 hPa Calm   9 mph /  14.5 km/h 40 % 0 in /  0.0 mm
16:17 83.7 °F /  28.7 °C 57.4 °F /  14.1 °C 30.1 in /  1019.9 hPa ENE 3 mph /  4.8 km/h 8 mph /  12.9 km/h 41 % 0 in /  0.0 mm
16:22 83.5 °F /  28.6 °C 56.7 °F /  13.7 °C 30.1 in /  1019.9 hPa ENE 2 mph /  3.2 km/h 9 mph /  14.5 km/h 40 % 0 in /  0.0 mm
16:27 82.9 °F /  28.3 °C 56.8 °F /  13.8 °C 30.1 in /  1019.9 hPa East 7 mph /  11.3 km/h 9 mph /  14.5 km/h 41 % 0 in /  0.0 mm
16:32 82.8 °F /  28.2 °C 56.7 °F /  13.7 °C 30.1 in /  1019.9 hPa East 3 mph /  4.8 km/h 10 mph /  16.1 km/h 41 % 0 in /  0.0 mm
16:37 82.8 °F /  28.2 °C 56.7 °F /  13.7 °C 30.1 in /  1019.9 hPa ENE 4 mph /  6.4 km/h 10 mph /  16.1 km/h 41 % 0 in /  0.0 mm
16:42 83.7 °F /  28.7 °C 57.4 °F /  14.1 °C 30.1 in /  1019.9 hPa Calm   10 mph /  16.1 km/h 41 % 0 in /  0.0 mm
16:47 83.8 °F /  28.8 °C 58.3 °F /  14.6 °C 30.1 in /  1019.9 hPa Calm   6 mph /  9.7 km/h 42 % 0 in /  0.0 mm
16:52 84 °F /  28.9 °C 56.5 °F /  13.6 °C 30.1 in /  1019.9 hPa Calm   5 mph /  8.0 km/h 39 % 0 in /  0.0 mm
16:57 83.8 °F /  28.8 °C 57 °F /  13.9 °C 30.1 in /  1019.5 hPa SE 2 mph /  3.2 km/h 6 mph /  9.7 km/h 40 % 0 in /  0.0 mm
17:02 83.8 °F /  28.8 °C 57.6 °F /  14.2 °C 30.1 in /  1019.9 hPa East 4 mph /  6.4 km/h 6 mph /  9.7 km/h 41 % 0 in /  0.0 mm
17:07 83.5 °F /  28.6 °C 57.4 °F /  14.1 °C 30.1 in /  1019.5 hPa NE 2 mph /  3.2 km/h 8 mph /  12.9 km/h 41 % 0 in /  0.0 mm
17:12 83.7 °F /  28.7 °C 56.8 °F /  13.8 °C 30.1 in /  1019.5 hPa SSE 1 mph /  1.6 km/h 8 mph /  12.9 km/h 40 % 0 in /  0.0 mm
17:17 84 °F /  28.9 °C 57.7 °F /  14.3 °C 30.1 in /  1019.5 hPa SSW 4 mph /  6.4 km/h 8 mph /  12.9 km/h 41 % 0 in /  0.0 mm
17:22 84.6 °F /  29.2 °C 59.5 °F /  15.3 °C 30.1 in /  1019.5 hPa SE 2 mph /  3.2 km/h 7 mph /  11.3 km/h 43 % 0 in /  0.0 mm
17:27 84.4 °F /  29.1 °C 57.4 °F /  14.1 °C 30.1 in /  1019.2 hPa ESE 6 mph /  9.7 km/h 7 mph /  11.3 km/h 40 % 0 in /  0.0 mm
17:32 83.7 °F /  28.7 °C 56.8 °F /  13.8 °C 30.1 in /  1019.2 hPa East 2 mph /  3.2 km/h 10 mph /  16.1 km/h 40 % 0 in /  0.0 mm
17:37 83.7 °F /  28.7 °C 57.4 °F /  14.1 °C 30.1 in /  1019.2 hPa East 6 mph /  9.7 km/h 10 mph /  16.1 km/h 41 % 0 in /  0.0 mm
17:42 83.8 °F /  28.8 °C 57.6 °F /  14.2 °C 30.1 in /  1018.8 hPa ENE 5 mph /  8.0 km/h 10 mph /  16.1 km/h 41 % 0 in /  0.0 mm
17:47 83.8 °F /  28.8 °C 57.6 °F /  14.2 °C 30.1 in /  1018.8 hPa East 4 mph /  6.4 km/h 10 mph /  16.1 km/h 41 % 0 in /  0.0 mm
17:52 84 °F /  28.9 °C 55.8 °F /  13.2 °C 30.1 in /  1018.8 hPa East 2 mph /  3.2 km/h 9 mph /  14.5 km/h 38 % 0 in /  0.0 mm
17:57 83.8 °F /  28.8 °C 56.3 °F /  13.5 °C 30.1 in /  1018.8 hPa ESE 2 mph /  3.2 km/h 8 mph /  12.9 km/h 39 % 0 in /  0.0 mm
18:02 84.6 °F /  29.2 °C 56.8 °F /  13.8 °C 30.1 in /  1018.8 hPa ENE 1 mph /  1.6 km/h 6 mph /  9.7 km/h 39 % 0 in /  0.0 mm
18:07 85.1 °F /  29.5 °C 57.4 °F /  14.1 °C 30.1 in /  1018.8 hPa ENE 4 mph /  6.4 km/h 6 mph /  9.7 km/h 39 % 0 in /  0.0 mm
18:12 84.7 °F /  29.3 °C 57.7 °F /  14.3 °C 30.1 in /  1018.8 hPa East 5 mph /  8.0 km/h 9 mph /  14.5 km/h 40 % 0 in /  0.0 mm
18:17 84 °F /  28.9 °C 57.7 °F /  14.3 °C 30.1 in /  1018.8 hPa NNE 3 mph /  4.8 km/h 9 mph /  14.5 km/h 41 % 0 in /  0.0 mm
18:22 84 °F /  28.9 °C 57.7 °F /  14.3 °C 30.1 in /  1018.8 hPa ENE 5 mph /  8.0 km/h 9 mph /  14.5 km/h 41 % 0 in /  0.0 mm
18:27 83.5 °F /  28.6 °C 57.4 °F /  14.1 °C 30.1 in /  1018.8 hPa ENE 3 mph /  4.8 km/h 7 mph /  11.3 km/h 41 % 0 in /  0.0 mm
18:32 83.7 °F /  28.7 °C 57.4 °F /  14.1 °C 30.1 in /  1018.8 hPa NE 2 mph /  3.2 km/h 7 mph /  11.3 km/h 41 % 0 in /  0.0 mm
18:42 84.6 °F /  29.2 °C 56.8 °F /  13.8 °C 30.1 in /  1018.8 hPa SW 2 mph /  3.2 km/h 7 mph /  11.3 km/h 39 % 0 in /  0.0 mm
18:47 85.1 °F /  29.5 °C 58.1 °F /  14.5 °C 30.1 in /  1018.8 hPa Calm   5 mph /  8.0 km/h 40 % 0 in /  0.0 mm
18:52 86 °F /  30.0 °C 59.5 °F /  15.3 °C 30.1 in /  1018.5 hPa Calm   4 mph /  6.4 km/h 41 % 0 in /  0.0 mm
18:57 86.2 °F /  30.1 °C 58.3 °F /  14.6 °C 30.1 in /  1018.5 hPa ENE 4 mph /  6.4 km/h 4 mph /  6.4 km/h 39 % 0 in /  0.0 mm
19:02 85.1 °F /  29.5 °C 58.1 °F /  14.5 °C 30.1 in /  1018.8 hPa Calm   6 mph /  9.7 km/h 40 % 0 in /  0.0 mm
19:07 84.7 °F /  29.3 °C 57.7 °F /  14.3 °C 30.1 in /  1018.8 hPa NE 2 mph /  3.2 km/h 6 mph /  9.7 km/h 40 % 0 in /  0.0 mm
19:12 84 °F /  28.9 °C 58.5 °F /  14.7 °C 30.1 in /  1018.8 hPa NE 2 mph /  3.2 km/h 6 mph /  9.7 km/h 42 % 0 in /  0.0 mm
19:17 83.7 °F /  28.7 °C 57.4 °F /  14.1 °C 30.1 in /  1018.8 hPa East 2 mph /  3.2 km/h 4 mph /  6.4 km/h 41 % 0 in /  0.0 mm
19:22 83.5 °F /  28.6 °C 57.4 °F /  14.1 °C 30.1 in /  1018.8 hPa ENE 1 mph /  1.6 km/h 4 mph /  6.4 km/h 41 % 0 in /  0.0 mm
19:27 83.7 °F /  28.7 °C 57.4 °F /  14.1 °C 30.1 in /  1018.5 hPa Calm   6 mph /  9.7 km/h 41 % 0 in /  0.0 mm
19:32 83.5 °F /  28.6 °C 56.7 °F /  13.7 °C 30.1 in /  1018.5 hPa ENE 5 mph /  8.0 km/h 8 mph /  12.9 km/h 40 % 0 in /  0.0 mm
19:37 83.1 °F /  28.4 °C 57.6 °F /  14.2 °C 30.1 in /  1018.5 hPa ESE 1 mph /  1.6 km/h 8 mph /  12.9 km/h 42 % 0 in /  0.0 mm
19:42 82.9 °F /  28.3 °C 57.6 °F /  14.2 °C 30.1 in /  1018.5 hPa East 3 mph /  4.8 km/h 8 mph /  12.9 km/h 42 % 0 in /  0.0 mm
19:47 82.8 °F /  28.2 °C 57.4 °F /  14.1 °C 30.1 in /  1018.8 hPa ENE 2 mph /  3.2 km/h 5 mph /  8.0 km/h 42 % 0 in /  0.0 mm
19:52 82.8 °F /  28.2 °C 57.4 °F /  14.1 °C 30.1 in /  1018.8 hPa ENE 2 mph /  3.2 km/h 5 mph /  8.0 km/h 42 % 0 in /  0.0 mm
19:57 82.6 °F /  28.1 °C 57.2 °F /  14.0 °C 30.1 in /  1018.5 hPa Calm   5 mph /  8.0 km/h 42 % 0 in /  0.0 mm
20:02 82 °F /  27.8 °C 57.4 °F /  14.1 °C 30.1 in /  1018.5 hPa ENE 1 mph /  1.6 km/h 4 mph /  6.4 km/h 43 % 0 in /  0.0 mm
20:07 81.7 °F /  27.6 °C 58.3 °F /  14.6 °C 30.1 in /  1018.8 hPa East 1 mph /  1.6 km/h 4 mph /  6.4 km/h 45 % 0 in /  0.0 mm
20:12 81.7 °F /  27.6 °C 58.3 °F /  14.6 °C 30.1 in /  1018.8 hPa Calm   4 mph /  6.4 km/h 45 % 0 in /  0.0 mm
20:17 81.9 °F /  27.7 °C 58.5 °F /  14.7 °C 30.1 in /  1018.5 hPa Calm   3 mph /  4.8 km/h 45 % 0 in /  0.0 mm
20:22 82.2 °F /  27.9 °C 58.1 °F /  14.5 °C 30.1 in /  1018.5 hPa Calm   2 mph /  3.2 km/h 44 % 0 in /  0.0 mm
20:27 82.4 °F /  28.0 °C 58.3 °F /  14.6 °C 30.1 in /  1018.5 hPa East 1 mph /  1.6 km/h 3 mph /  4.8 km/h 44 % 0 in /  0.0 mm
20:32 82.2 °F /  27.9 °C 58.1 °F /  14.5 °C 30.1 in /  1018.5 hPa ENE 2 mph /  3.2 km/h 4 mph /  6.4 km/h 44 % 0 in /  0.0 mm
20:37 82 °F /  27.8 °C 57.9 °F /  14.4 °C 30.1 in /  1018.5 hPa East 1 mph /  1.6 km/h 4 mph /  6.4 km/h 44 % 0 in /  0.0 mm
20:42 82 °F /  27.8 °C 57.9 °F /  14.4 °C 30.1 in /  1018.5 hPa Calm   4 mph /  6.4 km/h 44 % 0 in /  0.0 mm
20:47 81.9 °F /  27.7 °C 57.7 °F /  14.3 °C 30.1 in /  1018.2 hPa Calm   3 mph /  4.8 km/h 44 % 0 in /  0.0 mm
20:57 81.3 °F /  27.4 °C 58.6 °F /  14.8 °C 30.1 in /  1018.2 hPa East 1 mph /  1.6 km/h 3 mph /  4.8 km/h 46 % 0 in /  0.0 mm
21:02 81 °F /  27.2 °C 58.3 °F /  14.6 °C 30.1 in /  1018.5 hPa Calm   3 mph /  4.8 km/h 46 % 0 in /  0.0 mm
21:07 80.4 °F /  26.9 °C 58.3 °F /  14.6 °C 30.1 in /  1018.5 hPa Calm   3 mph /  4.8 km/h 47 % 0 in /  0.0 mm
21:12 80.1 °F /  26.7 °C 58.1 °F /  14.5 °C 30.1 in /  1018.5 hPa Calm   1 mph /  1.6 km/h 47 % 0 in /  0.0 mm
21:17 79.9 °F /  26.6 °C 59 °F /  15.0 °C 30.1 in /  1018.5 hPa Calm     49 % 0 in /  0.0 mm
21:22 79.5 °F /  26.4 °C 59.7 °F /  15.4 °C 30.1 in /  1018.5 hPa Calm     51 % 0 in /  0.0 mm
21:32 79 °F /  26.1 °C 59.4 °F /  15.2 °C 30.1 in /  1018.5 hPa Calm     51 % 0 in /  0.0 mm
21:37 77.9 °F /  25.5 °C 59.4 °F /  15.2 °C 30.1 in /  1018.5 hPa Calm     53 % 0 in /  0.0 mm
21:42 76.5 °F /  24.7 °C 58.6 °F /  14.8 °C 30.1 in /  1018.5 hPa Calm     54 % 0 in /  0.0 mm
21:47 75.6 °F /  24.2 °C 59.2 °F /  15.1 °C 30.1 in /  1018.5 hPa Calm     57 % 0 in /  0.0 mm
21:52 74.7 °F /  23.7 °C 59.4 °F /  15.2 °C 30.1 in /  1018.5 hPa Calm     59 % 0 in /  0.0 mm
22:02 73.9 °F /  23.3 °C 58.3 °F /  14.6 °C 30.1 in /  1018.5 hPa Calm     58 % 0 in /  0.0 mm
22:07 73.6 °F /  23.1 °C 58.3 °F /  14.6 °C 30.1 in /  1018.5 hPa Calm     59 % 0 in /  0.0 mm
22:12 73 °F /  22.8 °C 58.8 °F /  14.9 °C 30.1 in /  1018.5 hPa Calm     61 % 0 in /  0.0 mm
22:17 72.7 °F /  22.6 °C 59.7 °F /  15.4 °C 30.1 in /  1018.5 hPa Calm     64 % 0 in /  0.0 mm
22:22 72.3 °F /  22.4 °C 59.9 °F /  15.5 °C 30.1 in /  1018.5 hPa Calm     65 % 0 in /  0.0 mm
22:27 71.8 °F /  22.1 °C 59.4 °F /  15.2 °C 30.1 in /  1018.5 hPa Calm     65 % 0 in /  0.0 mm
22:32 71.2 °F /  21.8 °C 59.4 °F /  15.2 °C 30.1 in /  1018.5 hPa Calm     66 % 0 in /  0.0 mm
22:42 70.3 °F /  21.3 °C 58.8 °F /  14.9 °C 30.1 in /  1018.8 hPa Calm     67 % 0 in /  0.0 mm
22:52 69.4 °F /  20.8 °C 59.2 °F /  15.1 °C 30.1 in /  1018.8 hPa Calm     70 % 0 in /  0.0 mm
22:57 68.9 °F /  20.5 °C 59.2 °F /  15.1 °C 30.1 in /  1018.8 hPa Calm     71 % 0 in /  0.0 mm
23:02 68.7 °F /  20.4 °C 58.5 °F /  14.7 °C 30.1 in /  1018.8 hPa Calm     70 % 0 in /  0.0 mm
23:07 69.1 °F /  20.6 °C 59.4 °F /  15.2 °C 30.1 in /  1018.8 hPa Calm     71 % 0 in /  0.0 mm
23:12 69.1 °F /  20.6 °C 59.4 °F /  15.2 °C 30.1 in /  1018.8 hPa Calm     71 % 0 in /  0.0 mm
23:17 68.9 °F /  20.5 °C 59.2 °F /  15.1 °C 30.1 in /  1018.8 hPa Calm     71 % 0 in /  0.0 mm
23:22 68.2 °F /  20.1 °C 58.8 °F /  14.9 °C 30.1 in /  1018.8 hPa Calm     72 % 0 in /  0.0 mm
23:27 68.5 °F /  20.3 °C 59.5 °F /  15.3 °C 30.1 in /  1018.8 hPa Calm     73 % 0 in /  0.0 mm
23:32 69.1 °F /  20.6 °C 59.7 °F /  15.4 °C 30.1 in /  1018.8 hPa Calm     72 % 0 in /  0.0 mm
23:37 69.3 °F /  20.7 °C 59.9 °F /  15.5 °C 30.1 in /  1018.8 hPa Calm     72 % 0 in /  0.0 mm
23:42 69.4 °F /  20.8 °C 59.5 °F /  15.3 °C 30.1 in /  1018.8 hPa Calm     71 % 0 in /  0.0 mm
23:47 69.4 °F /  20.8 °C 59.5 °F /  15.3 °C 30.1 in /  1018.8 hPa Calm     71 % 0 in /  0.0 mm
23:52 69.3 °F /  20.7 °C 59.5 °F /  15.3 °C 30.1 in /  1018.8 hPa Calm     71 % 0 in /  0.0 mm
23:57 68.9 °F /  20.5 °C 59.5 °F /  15.3 °C 30.1 in /  1018.8 hPa Calm     72 % 0 in /  0.0 mm
Meteo18
Compliments of Weather Underground - 4 mb

Script developed by  Jim McMurry - jmcmurry@mwt.net Adapted for the template by  Wim van der Kuil - Leuven-Template.eu

You find our weather info also at:

European Weather Network

Weather Underground

Equipment we use:

Weather-station
Davis Vue

Weather-program
Meteohub

Weather-server
Raspberry PI 2 B+

Provider
1 and 1

Davis Vue

Meteohub

Raspberry PI 2 B+

1 and 1